Time;durP1;ratioP1;P1;durP2;ratioP2;P2;SDS_P1;SDS_P2;PMS_P1;PMS_P2;Temp;Humidity;BMP_temperature;BMP_pressure;BME280_temperature;BME280_humidity;BME280_pressure;Samples;Min_cycle;Max_cycle;Signal;HPM_P1;HPM_P2
2022/04/24 00:01:43;;;;;;;6.85;4.85;;;10.70;99.90;;;;;;5054462;28;20025;-78
2022/04/24 00:04:08;;;;;;;6.90;4.80;;;10.60;99.90;;;;;;5037654;28;20060;-77
2022/04/24 00:06:34;;;;;;;6.20;5.05;;;10.60;99.90;;;;;;5055978;28;20480;-79
2022/04/24 00:09:00;;;;;;;5.78;4.55;;;10.50;99.90;;;;;;5055440;28;20465;-80
2022/04/24 00:11:26;;;;;;;5.25;4.65;;;10.50;99.90;;;;;;5055632;28;20075;-80
2022/04/24 00:13:52;;;;;;;6.80;4.72;;;10.50;99.90;;;;;;5055837;28;20464;-80
2022/04/24 00:16:17;;;;;;;8.25;4.72;;;10.50;99.90;;;;;;5055679;28;20092;-80
2022/04/24 00:18:43;;;;;;;5.97;4.82;;;10.50;99.90;;;;;;5055474;28;20025;-80
2022/04/24 00:21:09;;;;;;;15.73;5.47;;;10.50;99.90;;;;;;5056064;28;20021;-80
2022/04/24 00:23:35;;;;;;;7.65;4.80;;;10.40;99.90;;;;;;5056573;28;20450;-80
2022/04/24 00:26:01;;;;;;;6.03;4.75;;;10.40;99.90;;;;;;5054784;28;20033;-80
2022/04/24 00:28:27;;;;;;;9.23;5.35;;;10.40;99.90;;;;;;5055852;28;20033;-81
2022/04/24 00:30:52;;;;;;;6.20;5.28;;;10.30;99.90;;;;;;5037387;28;20029;-79
2022/04/24 00:33:18;;;;;;;6.53;5.10;;;10.20;99.90;;;;;;5056304;28;20060;-78
2022/04/24 00:35:44;;;;;;;6.85;5.00;;;10.20;99.90;;;;;;5037963;28;20028;-77
2022/04/24 00:38:09;;;;;;;6.38;5.10;;;10.20;99.90;;;;;;5036201;28;20024;-78
2022/04/24 00:40:35;;;;;;;5.88;4.80;;;10.10;99.90;;;;;;5035960;28;20017;-78
2022/04/24 00:43:01;;;;;;;6.43;5.32;;;10.10;99.90;;;;;;5053704;28;20040;-79
2022/04/24 00:45:26;;;;;;;8.25;5.05;;;10.10;99.90;;;;;;5027313;28;20089;-78
2022/04/24 00:47:52;;;;;;;6.72;5.45;;;10.00;99.90;;;;;;5016234;28;20032;-77
2022/04/24 00:50:18;;;;;;;6.47;5.38;;;9.90;99.90;;;;;;5016039;28;20025;-76
2022/04/24 00:52:45;;;;;;;8.15;5.25;;;9.90;99.90;;;;;;5033386;28;20084;-78
2022/04/24 00:55:11;;;;;;;7.90;5.95;;;9.90;99.90;;;;;;5015906;28;20029;-78
2022/04/24 00:57:36;;;;;;;7.45;5.40;;;9.80;99.90;;;;;;5033660;28;20377;-77
2022/04/24 01:00:03;;;;;;;8.00;5.85;;;9.80;99.90;;;;;;5033629;28;20030;-78
2022/04/24 01:02:29;;;;;;;6.55;5.40;;;9.80;99.90;;;;;;5033974;28;20473;-76
2022/04/24 01:04:56;;;;;;;7.57;5.50;;;9.70;99.90;;;;;;5016493;28;20037;-77
2022/04/24 01:07:22;;;;;;;9.05;5.43;;;9.70;99.90;;;;;;5034959;28;20449;-78
2022/04/24 01:09:47;;;;;;;6.72;5.15;;;9.70;99.90;;;;;;5034296;28;20025;-79
2022/04/24 01:12:13;;;;;;;7.18;4.82;;;9.70;99.90;;;;;;5016824;28;20033;-77
2022/04/24 01:14:38;;;;;;;6.65;5.28;;;9.60;99.90;;;;;;5034036;28;20032;-78
2022/04/24 01:17:05;;;;;;;12.25;5.53;;;9.60;99.90;;;;;;5034493;28;20221;-79
2022/04/24 01:19:31;;;;;;;7.05;5.47;;;9.60;99.90;;;;;;5033638;28;20029;-78
2022/04/24 01:21:58;;;;;;;10.07;6.30;;;9.50;99.90;;;;;;5032972;28;20029;-76
2022/04/24 01:24:25;;;;;;;8.35;6.05;;;9.50;99.90;;;;;;5034160;28;20037;-79
2022/04/24 01:26:51;;;;;;;7.30;5.25;;;9.50;99.90;;;;;;5034329;28;20034;-78
2022/04/24 01:29:18;;;;;;;8.93;6.47;;;9.50;99.90;;;;;;5033442;28;20481;-78
2022/04/24 01:31:45;;;;;;;8.88;6.30;;;9.50;99.90;;;;;;5034331;28;20029;-78
2022/04/24 01:34:14;;;;;;;7.20;5.80;;;9.40;99.90;;;;;;5016346;28;20032;-78
2022/04/24 01:36:39;;;;;;;7.45;6.03;;;9.30;99.90;;;;;;5033612;28;20025;-76
2022/04/24 01:39:05;;;;;;;6.90;6.15;;;9.20;99.90;;;;;;5015657;28;20095;-78
2022/04/24 01:41:31;;;;;;;8.27;5.95;;;9.20;99.90;;;;;;5034497;28;20029;-80
2022/04/24 01:43:58;;;;;;;7.15;5.68;;;9.20;99.90;;;;;;5034658;28;20028;-80
2022/04/24 01:46:23;;;;;;;7.07;5.97;;;9.20;99.90;;;;;;5033461;28;20024;-78
2022/04/24 01:48:49;;;;;;;7.63;6.35;;;9.20;99.90;;;;;;5055554;28;20067;-77
2022/04/24 01:51:15;;;;;;;8.65;6.63;;;9.20;99.90;;;;;;5039944;28;20028;-78
2022/04/24 01:53:42;;;;;;;11.48;5.78;;;9.10;99.90;;;;;;5057537;28;20033;-79
2022/04/24 01:56:08;;;;;;;7.78;5.82;;;9.00;99.90;;;;;;5055638;28;20017;-79
2022/04/24 01:58:35;;;;;;;7.15;6.10;;;8.90;99.90;;;;;;5054862;28;20022;-79
2022/04/24 02:01:01;;;;;;;7.32;6.00;;;8.90;99.90;;;;;;5054498;28;20033;-78
2022/04/24 02:03:29;;;;;;;8.02;5.63;;;8.90;99.90;;;;;;5053953;28;20025;-77
2022/04/24 02:05:55;;;;;;;8.77;6.00;;;8.80;99.90;;;;;;5053270;28;20021;-79
2022/04/24 02:08:20;;;;;;;8.70;6.15;;;8.80;99.90;;;;;;5055476;28;20546;-77
2022/04/24 02:10:46;;;;;;;9.25;6.30;;;8.70;99.90;;;;;;5073282;28;20085;-78
2022/04/24 02:13:12;;;;;;;8.32;6.15;;;8.60;99.90;;;;;;5045652;28;20052;-80
2022/04/24 02:15:38;;;;;;;9.88;7.07;;;8.60;99.90;;;;;;5055885;28;20032;-78
2022/04/24 02:18:04;;;;;;;8.68;6.53;;;8.60;99.90;;;;;;5053745;28;20017;-80
2022/04/24 02:20:30;;;;;;;10.15;6.95;;;8.60;99.90;;;;;;5036290;28;20025;-80
2022/04/24 02:22:57;;;;;;;10.10;7.07;;;8.70;99.90;;;;;;5053926;28;20029;-79
2022/04/24 02:25:24;;;;;;;9.20;6.53;;;8.60;99.90;;;;;;5053851;28;20080;-78
2022/04/24 02:27:49;;;;;;;12.70;7.45;;;8.60;99.90;;;;;;5054409;28;20029;-78
2022/04/24 02:30:15;;;;;;;8.75;7.05;;;8.50;99.90;;;;;;5036190;28;20071;-78
2022/04/24 02:32:40;;;;;;;9.98;6.68;;;8.40;99.90;;;;;;5036736;28;20029;-79
2022/04/24 02:35:06;;;;;;;10.07;7.25;;;8.40;99.90;;;;;;5055083;28;20033;-78
2022/04/24 02:37:32;;;;;;;8.75;7.22;;;8.40;99.90;;;;;;5055059;28;20033;-78
2022/04/24 02:39:58;;;;;;;10.15;6.50;;;8.40;99.90;;;;;;5036936;28;20017;-77
2022/04/24 02:42:24;;;;;;;7.85;6.20;;;8.40;99.90;;;;;;5053438;28;20052;-77
2022/04/24 02:44:50;;;;;;;9.43;6.68;;;8.40;99.90;;;;;;5048515;28;20112;-78
2022/04/24 02:47:16;;;;;;;7.90;6.57;;;8.40;99.90;;;;;;5031051;28;20170;-76
2022/04/24 02:49:41;;;;;;;8.30;6.28;;;8.50;99.90;;;;;;5017746;28;20029;-78
2022/04/24 02:52:07;;;;;;;8.45;6.75;;;8.40;99.90;;;;;;5036503;28;20110;-79
2022/04/24 02:54:32;;;;;;;7.70;6.38;;;8.40;99.90;;;;;;5018689;28;20018;-76
2022/04/24 02:56:59;;;;;;;7.97;6.15;;;8.30;99.90;;;;;;5018704;28;20022;-77
2022/04/24 02:59:25;;;;;;;10.90;6.07;;;8.20;99.90;;;;;;5036347;28;20025;-78
2022/04/24 03:01:51;;;;;;;7.57;5.88;;;8.10;99.90;;;;;;5036323;28;20104;-78
2022/04/24 03:04:17;;;;;;;10.20;6.78;;;8.10;99.90;;;;;;5052659;22;20077;-83
2022/04/24 03:06:42;;;;;;;8.07;6.45;;;8.00;99.90;;;;;;5040146;28;20048;-82
2022/04/24 03:09:08;;;;;;;8.57;6.25;;;7.90;99.90;;;;;;5041086;28;20025;-83
2022/04/24 03:11:34;;;;;;;10.52;6.53;;;7.80;99.90;;;;;;5041314;28;20031;-84
2022/04/24 03:13:59;;;;;;;8.05;6.22;;;7.70;99.90;;;;;;5041084;28;20033;-82
2022/04/24 03:16:25;;;;;;;7.38;6.55;;;7.60;99.90;;;;;;5041034;28;20495;-83
2022/04/24 03:18:51;;;;;;;11.25;7.47;;;7.60;99.90;;;;;;5042499;28;20024;-82
2022/04/24 03:21:17;;;;;;;10.13;8.15;;;7.60;99.90;;;;;;5042143;28;20080;-83
2022/04/24 03:23:42;;;;;;;9.82;7.90;;;7.70;99.90;;;;;;5043581;28;20024;-82
2022/04/24 03:26:08;;;;;;;10.20;7.85;;;7.70;99.90;;;;;;5044087;28;20033;-83
2022/04/24 03:28:34;;;;;;;11.27;7.80;;;7.70;99.90;;;;;;5045341;28;20021;-83
2022/04/24 03:30:59;;;;;;;12.95;7.47;;;7.80;99.90;;;;;;5063214;28;20120;-83
2022/04/24 03:33:25;;;;;;;10.85;8.27;;;7.90;99.90;;;;;;5059190;28;20048;-84
2022/04/24 03:35:50;;;;;;;12.25;8.60;;;7.80;99.90;;;;;;5041185;28;20476;-83
2022/04/24 03:38:16;;;;;;;13.38;7.63;;;7.80;99.90;;;;;;5039961;28;20029;-82
2022/04/24 03:40:41;;;;;;;10.55;7.38;;;7.80;99.90;;;;;;5039831;28;20028;-81
2022/04/24 03:43:07;;;;;;;10.75;8.15;;;7.80;99.90;;;;;;5039845;28;20115;-81
2022/04/24 03:45:33;;;;;;;10.55;8.15;;;7.80;99.90;;;;;;5049785;28;20029;-81
2022/04/24 03:47:58;;;;;;;10.57;7.95;;;7.70;99.90;;;;;;5060684;28;20039;-82
2022/04/24 03:50:24;;;;;;;12.40;8.35;;;7.70;99.90;;;;;;5061433;28;20032;-82
2022/04/24 03:52:49;;;;;;;11.70;8.50;;;7.70;99.90;;;;;;5060896;28;20089;-82
2022/04/24 03:55:15;;;;;;;10.57;8.13;;;7.70;99.90;;;;;;5061837;28;20044;-82
2022/04/24 03:57:41;;;;;;;10.77;8.70;;;7.70;99.90;;;;;;5061121;28;20032;-82
2022/04/24 04:00:11;;;;;;;12.00;8.75;;;7.70;99.90;;;;;;5078906;28;20473;-83
2022/04/24 04:02:46;;;;;;;11.13;8.63;;;7.70;99.90;;;;;;5063679;28;20052;-82
2022/04/24 04:05:12;;;;;;;11.57;9.15;;;7.60;99.90;;;;;;5086285;28;20028;-82
2022/04/24 04:07:38;;;;;;;11.50;8.65;;;7.50;99.90;;;;;;5092383;28;20028;-80
2022/04/24 04:10:05;;;;;;;10.30;8.60;;;7.50;99.90;;;;;;5081331;28;20104;-80
2022/04/24 04:12:30;;;;;;;10.85;8.70;;;7.40;99.90;;;;;;5076861;28;20025;-83
2022/04/24 04:14:56;;;;;;;11.15;8.57;;;7.30;99.90;;;;;;5058716;28;20020;-81
2022/04/24 04:17:21;;;;;;;14.77;9.18;;;7.30;99.90;;;;;;5077300;28;20024;-81
2022/04/24 04:19:47;;;;;;;11.25;8.82;;;7.30;99.90;;;;;;5077143;28;20028;-82
2022/04/24 04:22:12;;;;;;;13.57;9.13;;;7.30;99.90;;;;;;5058696;28;20024;-82
2022/04/24 04:24:38;;;;;;;14.15;9.48;;;7.30;99.90;;;;;;5076673;28;20028;-82
2022/04/24 04:27:03;;;;;;;14.43;8.63;;;7.30;99.90;;;;;;5076234;28;20472;-81
2022/04/24 04:29:29;;;;;;;10.13;8.68;;;7.40;99.90;;;;;;5058007;28;20395;-82
2022/04/24 04:31:55;;;;;;;12.50;9.40;;;7.40;99.90;;;;;;5058829;28;20476;-81
2022/04/24 04:34:21;;;;;;;11.30;8.30;;;7.40;99.90;;;;;;5042082;28;20044;-80
2022/04/24 04:36:47;;;;;;;11.85;8.88;;;7.40;99.90;;;;;;5059213;28;20016;-80
2022/04/24 04:39:13;;;;;;;10.60;8.63;;;7.50;99.90;;;;;;5076628;28;20103;-80
2022/04/24 04:41:38;;;;;;;11.55;8.48;;;7.50;99.90;;;;;;5059606;28;20052;-83
2022/04/24 04:44:04;;;;;;;12.30;9.07;;;7.50;99.90;;;;;;5060917;28;20430;-82
2022/04/24 04:46:29;;;;;;;11.77;8.18;;;7.50;99.90;;;;;;5043472;28;20029;-85
2022/04/24 04:48:55;;;;;;;13.75;8.60;;;7.50;99.90;;;;;;5059754;28;20488;-83
2022/04/24 04:51:21;;;;;;;11.07;7.97;;;7.50;99.90;;;;;;5042448;28;20017;-84
2022/04/24 04:53:46;;;;;;;11.57;8.35;;;7.50;99.90;;;;;;5046075;28;20224;-83
2022/04/24 04:56:12;;;;;;;11.30;8.40;;;7.50;99.90;;;;;;5051170;28;20017;-82
2022/04/24 04:58:37;;;;;;;12.00;8.18;;;7.60;99.90;;;;;;5051379;28;20369;-81
2022/04/24 05:01:03;;;;;;;13.15;8.38;;;7.50;99.90;;;;;;5052213;28;20013;-82
2022/04/24 05:03:30;;;;;;;11.73;8.57;;;7.60;99.90;;;;;;5052226;28;20029;-84
2022/04/24 05:05:56;;;;;;;12.32;8.73;;;7.60;99.90;;;;;;5052799;28;20031;-83
2022/04/24 05:08:22;;;;;;;11.50;8.55;;;7.70;99.90;;;;;;5075547;28;20045;-80
2022/04/24 05:10:47;;;;;;;9.82;8.48;;;7.70;99.90;;;;;;5057445;28;20089;-81
2022/04/24 05:13:13;;;;;;;10.35;7.85;;;7.80;99.90;;;;;;5058664;28;20078;-81
2022/04/24 05:15:38;;;;;;;15.55;8.32;;;7.80;99.90;;;;;;5059096;28;20033;-80
2022/04/24 05:18:04;;;;;;;9.73;7.72;;;7.90;99.90;;;;;;5059044;28;20021;-83
2022/04/24 05:20:29;;;;;;;11.48;7.82;;;8.00;99.90;;;;;;5059446;28;20085;-81
2022/04/24 05:23:06;;;;;;;11.38;7.97;;;8.10;99.90;;;;;;5077034;28;20316;-82
2022/04/24 05:25:32;;;;;;;10.13;7.45;;;8.20;99.90;;;;;;5059098;28;20089;-81
2022/04/24 05:27:58;;;;;;;12.27;7.53;;;8.20;99.90;;;;;;5068776;28;20044;-82
2022/04/24 05:30:23;;;;;;;10.50;7.88;;;8.30;99.90;;;;;;5040964;28;20522;-80
2022/04/24 05:32:51;;;;;;;9.43;7.07;;;8.40;99.90;;;;;;5040143;28;20063;-82
2022/04/24 05:35:17;;;;;;;11.45;7.53;;;8.50;99.90;;;;;;5058037;28;20025;-83
2022/04/24 05:37:45;;;;;;;10.43;7.25;;;8.70;99.90;;;;;;5040557;28;20028;-82
2022/04/24 05:40:11;;;;;;;11.18;7.40;;;8.80;99.90;;;;;;5041187;28;20025;-84
2022/04/24 05:42:49;;;;;;;11.05;7.50;;;8.90;99.90;;;;;;5058858;28;20432;-83
2022/04/24 05:45:18;;;;;;;9.52;6.55;;;9.00;99.90;;;;;;5065575;28;20546;-83
2022/04/24 05:47:44;;;;;;;8.73;6.53;;;9.20;99.90;;;;;;5080389;28;20025;-82
2022/04/24 05:50:10;;;;;;;9.38;6.47;;;9.30;99.90;;;;;;5082301;28;20039;-83
2022/04/24 05:52:35;;;;;;;8.35;6.18;;;9.50;99.90;;;;;;5063039;28;20032;-83
2022/04/24 05:55:01;;;;;;;10.13;7.05;;;9.70;99.90;;;;;;5062705;28;20021;-82
2022/04/24 05:57:27;;;;;;;8.52;6.78;;;9.80;99.90;;;;;;5079527;28;20085;-84
2022/04/24 05:59:52;;;;;;;8.65;7.18;;;9.90;99.90;;;;;;5060930;28;20546;-85
2022/04/24 06:02:18;;;;;;;10.25;7.35;;;10.10;99.90;;;;;;5062736;28;20034;-83
2022/04/24 06:04:43;;;;;;;9.07;6.80;;;10.40;99.90;;;;;;5060884;28;20054;-80
2022/04/24 06:07:10;;;;;;;8.77;6.68;;;10.50;99.90;;;;;;5062964;28;20028;-83
2022/04/24 06:09:35;;;;;;;9.27;7.05;;;10.70;99.90;;;;;;5082109;28;20024;-83
2022/04/24 06:12:01;;;;;;;8.18;6.55;;;11.00;99.90;;;;;;5061938;28;20109;-80
2022/04/24 06:14:28;;;;;;;11.13;6.70;;;11.10;99.90;;;;;;5062168;28;20021;-81
2022/04/24 06:16:55;;;;;;;10.90;6.45;;;11.20;99.90;;;;;;5082560;28;20028;-82
2022/04/24 06:19:21;;;;;;;9.13;7.07;;;11.20;99.90;;;;;;5066399;28;20043;-84
2022/04/24 06:21:46;;;;;;;13.43;6.93;;;11.30;99.90;;;;;;5088211;28;20025;-81
2022/04/24 06:24:13;;;;;;;8.88;6.75;;;11.50;99.90;;;;;;5095539;28;20013;-82
2022/04/24 06:26:39;;;;;;;10.13;6.75;;;11.60;99.90;;;;;;5076349;28;20043;-81
2022/04/24 06:29:05;;;;;;;10.02;6.53;;;11.80;99.90;;;;;;5068493;28;20102;-82
2022/04/24 06:31:31;;;;;;;10.00;7.00;;;11.80;99.90;;;;;;5085507;28;20414;-82
2022/04/24 06:33:56;;;;;;;11.18;6.60;;;11.90;99.90;;;;;;5068555;28;20021;-81
2022/04/24 06:36:22;;;;;;;8.23;5.53;;;11.80;99.90;;;;;;5064912;28;20024;-84
2022/04/24 06:38:47;;;;;;;6.97;6.20;;;12.00;99.90;;;;;;5067529;28;20076;-83
2022/04/24 06:41:14;;;;;;;10.93;6.60;;;12.00;99.90;;;;;;5068054;28;20047;-80
2022/04/24 06:43:40;;;;;;;11.55;6.68;;;12.10;99.90;;;;;;5066671;28;20082;-84
2022/04/24 06:46:06;;;;;;;9.02;6.43;;;12.20;99.90;;;;;;5087227;28;20055;-82
2022/04/24 06:48:31;;;;;;;9.45;6.25;;;12.40;99.90;;;;;;5067482;28;20112;-81
2022/04/24 06:50:57;;;;;;;8.18;6.20;;;12.40;99.90;;;;;;5085817;28;20037;-82
2022/04/24 06:53:23;;;;;;;8.75;6.53;;;12.70;99.90;;;;;;5068774;28;20104;-84
2022/04/24 06:55:49;;;;;;;9.30;6.05;;;13.00;99.90;;;;;;5071509;28;20024;-82
2022/04/24 06:58:17;;;;;;;9.40;6.38;;;13.10;99.90;;;;;;5071257;28;20044;-83
2022/04/24 07:00:44;;;;;;;10.50;6.03;;;13.10;99.90;;;;;;5063933;28;20028;-82
2022/04/24 07:03:10;;;;;;;8.73;6.78;;;13.10;99.90;;;;;;5080816;28;20021;-83
2022/04/24 07:05:36;;;;;;;7.90;6.00;;;13.20;99.90;;;;;;5063484;28;20051;-83
2022/04/24 07:08:01;;;;;;;12.10;6.50;;;13.00;99.90;;;;;;5081222;28;20025;-82
2022/04/24 07:10:27;;;;;;;10.48;6.60;;;13.10;99.90;;;;;;5064439;28;20124;-81
2022/04/24 07:12:54;;;;;;;9.77;6.05;;;13.00;99.90;;;;;;5080019;28;20028;-82
2022/04/24 07:15:21;;;;;;;10.63;5.72;;;13.20;99.90;;;;;;5061722;28;20028;-82
2022/04/24 07:17:48;;;;;;;9.80;6.07;;;13.50;99.90;;;;;;5061105;28;20151;-82
2022/04/24 07:20:15;;;;;;;7.88;5.90;;;13.70;98.80;;;;;;5079883;28;20027;-84
2022/04/24 07:22:49;;;;;;;10.07;6.40;;;14.00;97.80;;;;;;5080829;28;20099;-83
2022/04/24 07:25:22;;;;;;;8.40;6.07;;;14.40;94.30;;;;;;5080740;28;20047;-84
2022/04/24 07:27:48;;;;;;;9.55;5.95;;;14.60;92.80;;;;;;5081664;28;20392;-83
2022/04/24 07:30:15;;;;;;;8.88;6.30;;;14.80;92.30;;;;;;5081320;28;20021;-81
2022/04/24 07:32:52;;;;;;;8.48;6.50;;;14.90;90.30;;;;;;5063965;28;20055;-82
2022/04/24 07:35:27;;;;;;;14.30;7.53;;;14.80;90.20;;;;;;5062211;28;20443;-83
2022/04/24 07:37:53;;;;;;;11.57;6.70;;;15.00;88.90;;;;;;5061942;28;20116;-82
2022/04/24 07:40:20;;;;;;;10.30;6.68;;;15.10;87.50;;;;;;5062269;28;20024;-85
2022/04/24 07:43:00;;;;;;;10.38;6.38;;;15.10;85.20;;;;;;5079957;28;20135;-80
2022/04/24 07:45:29;;;;;;;9.55;6.65;;;15.00;86.00;;;;;;5052480;28;20523;-81
2022/04/24 07:47:56;;;;;;;8.00;6.30;;;15.30;84.90;;;;;;5041067;28;20029;-83
2022/04/24 07:50:25;;;;;;;9.93;7.07;;;15.20;84.50;;;;;;5041299;28;20072;-82
2022/04/24 07:52:51;;;;;;;7.53;6.25;;;15.50;82.10;;;;;;5040837;28;20071;-81
2022/04/24 07:55:19;;;;;;;7.55;6.32;;;15.40;84.20;;;;;;5057986;28;20334;-81
2022/04/24 07:57:49;;;;;;;11.65;6.20;;;15.80;83.50;;;;;;5059390;28;20470;-83
2022/04/24 08:00:17;;;;;;;9.07;6.50;;;16.00;80.90;;;;;;5041230;28;20021;-85
2022/04/24 08:03:06;;;;;;;7.07;5.60;;;16.10;78.50;;;;;;5040331;28;20024;-85
2022/04/24 08:05:37;;;;;;;10.85;6.55;;;16.30;80.50;;;;;;5040208;28;20108;-85
2022/04/24 08:08:05;;;;;;;9.38;6.57;;;16.70;75.70;;;;;;5058139;28;20025;-83
2022/04/24 08:10:33;;;;;;;10.15;6.65;;;16.80;75.30;;;;;;5057988;28;20021;-82
2022/04/24 08:13:03;;;;;;;11.85;6.55;;;16.80;73.20;;;;;;5040794;28;20035;-84
2022/04/24 08:15:31;;;;;;;10.48;7.10;;;16.60;73.90;;;;;;5041016;28;20048;-81
2022/04/24 08:17:57;;;;;;;9.18;6.45;;;16.40;74.50;;;;;;5059763;28;20021;-82
2022/04/24 08:20:23;;;;;;;9.63;6.90;;;16.30;74.50;;;;;;5041561;28;20013;-83
2022/04/24 08:22:50;;;;;;;10.98;6.90;;;16.30;75.00;;;;;;5058827;28;20025;-82
2022/04/24 08:25:18;;;;;;;11.27;7.15;;;16.60;73.90;;;;;;5041256;28;20052;-85
2022/04/24 08:27:44;;;;;;;10.30;7.97;;;17.00;72.90;;;;;;5042164;28;20043;-84
2022/04/24 08:30:11;;;;;;;9.15;6.65;;;17.20;70.70;;;;;;5060611;28;20025;-85
2022/04/24 08:32:38;;;;;;;8.07;6.45;;;17.40;70.10;;;;;;5062021;28;20076;-85
2022/04/24 08:35:08;;;;;;;9.20;7.32;;;17.30;70.10;;;;;;5042860;28;20028;-81
2022/04/24 08:37:34;;;;;;;11.43;7.63;;;17.20;69.90;;;;;;5061914;28;20021;-85
2022/04/24 08:39:59;;;;;;;8.30;7.20;;;17.10;70.00;;;;;;5043430;28;20028;-84
2022/04/24 08:42:26;;;;;;;9.10;7.50;;;16.80;71.20;;;;;;5069873;28;20021;-83
2022/04/24 08:44:55;;;;;;;11.07;6.90;;;16.80;71.30;;;;;;5049470;28;20023;-83
2022/04/24 08:47:22;;;;;;;9.82;6.32;;;17.20;70.00;;;;;;5060182;28;20021;-85
2022/04/24 08:49:48;;;;;;;7.65;6.53;;;17.50;69.60;;;;;;5079738;28;20037;-84
2022/04/24 08:52:14;;;;;;;10.77;6.93;;;17.70;68.50;;;;;;5061063;28;20468;-86
2022/04/24 08:54:41;;;;;;;9.18;7.00;;;17.90;68.20;;;;;;5061492;28;20135;-84
2022/04/24 08:57:12;;;;;;;8.27;6.78;;;18.10;67.30;;;;;;5062158;28;20047;-84
2022/04/24 08:59:38;;;;;;;9.63;7.15;;;18.40;66.00;;;;;;5080524;28;20027;-85
2022/04/24 09:02:04;;;;;;;9.80;8.05;;;18.50;64.90;;;;;;5083425;28;20016;-86
2022/04/24 09:04:34;;;;;;;8.20;7.22;;;18.20;64.00;;;;;;5062340;28;20064;-85
2022/04/24 09:07:02;;;;;;;7.85;6.30;;;18.00;65.00;;;;;;5059939;28;20044;-85
2022/04/24 09:09:31;;;;;;;12.32;6.80;;;18.20;67.10;;;;;;5060177;28;20134;-83
2022/04/24 09:12:11;;;;;;;10.55;7.15;;;18.60;64.70;;;;;;5078270;28;20017;-83
2022/04/24 09:14:37;;;;;;;10.20;7.25;;;18.60;64.00;;;;;;5078603;28;20044;-86
2022/04/24 09:17:07;;;;;;;11.43;6.57;;;18.60;63.80;;;;;;5060395;28;20488;-84
2022/04/24 09:19:36;;;;;;;7.22;5.85;;;18.90;63.20;;;;;;5060753;28;20035;-83
2022/04/24 09:22:07;;;;;;;8.85;6.90;;;19.40;63.90;;;;;;5061270;28;20021;-83
2022/04/24 09:24:43;;;;;;;11.20;8.60;;;19.70;61.40;;;;;;5060077;28;20020;-86
2022/04/24 09:27:10;;;;;;;9.75;8.20;;;19.60;59.50;;;;;;5079095;28;20032;-84
2022/04/24 09:29:49;;;;;;;10.07;8.77;;;19.70;60.20;;;;;;5061110;28;20131;-84
2022/04/24 09:32:15;;;;;;;10.55;8.55;;;19.50;60.30;;;;;;5062069;28;20473;-84
2022/04/24 09:34:40;;;;;;;11.55;7.90;;;19.10;62.30;;;;;;5062211;28;20021;-83
2022/04/24 09:37:09;;;;;;;10.65;8.43;;;19.20;61.70;;;;;;5062865;28;20016;-83
2022/04/24 09:39:38;;;;;;;10.90;8.80;;;19.20;60.70;;;;;;5079186;28;20059;-83
2022/04/24 09:42:08;;;;;;;8.90;7.57;;;19.30;60.20;;;;;;5061075;28;20048;-85
2022/04/24 09:44:40;;;;;;;11.80;8.40;;;19.70;60.20;;;;;;5077900;28;20095;-83
2022/04/24 09:47:06;;;;;;;9.70;7.25;;;19.50;61.40;;;;;;5060031;28;20087;-85
2022/04/24 09:49:38;;;;;;;11.23;8.40;;;19.30;60.50;;;;;;5076496;28;20100;-85
2022/04/24 09:52:12;;;;;;;11.10;7.80;;;19.20;61.50;;;;;;5059915;28;20027;-84
2022/04/24 09:54:46;;;;;;;9.75;7.70;;;19.50;62.20;;;;;;5077759;28;20060;-83
2022/04/24 09:57:17;;;;;;;7.38;6.57;;;19.50;60.30;;;;;;5079346;28;20480;-84
2022/04/24 09:59:45;;;;;;;11.40;8.38;;;19.70;58.70;;;;;;5085343;28;20024;-85
2022/04/24 10:02:14;;;;;;;11.75;7.97;;;19.60;58.40;;;;;;5066807;28;20020;-86
2022/04/24 10:04:40;;;;;;;10.45;7.63;;;19.40;58.80;;;;;;5085781;28;20036;-85
2022/04/24 10:07:11;;;;;;;10.18;7.85;;;19.00;60.10;;;;;;5066167;28;20332;-85
2022/04/24 10:09:42;;;;;;;9.80;7.95;;;19.20;59.80;;;;;;5066380;28;20028;-85
2022/04/24 10:12:15;;;;;;;9.75;6.90;;;19.20;61.10;;;;;;5065786;28;20044;-85
2022/04/24 10:14:57;;;;;;;9.00;7.72;;;19.50;60.20;;;;;;5083987;28;20146;-85
2022/04/24 10:17:46;;;;;;;8.90;6.32;;;19.70;58.20;;;;;;5067077;28;20022;-85
2022/04/24 10:20:27;;;;;;;10.35;6.95;;;20.00;58.40;;;;;;5067005;28;20396;-83
2022/04/24 10:22:54;;;;;;;12.95;7.30;;;19.90;57.60;;;;;;5066434;28;20025;-85
2022/04/24 10:25:37;;;;;;;11.60;7.32;;;19.90;57.70;;;;;;5066229;28;20086;-85
2022/04/24 10:28:10;;;;;;;9.77;7.38;;;19.90;57.20;;;;;;5066419;28;20039;-84
2022/04/24 10:30:36;;;;;;;11.05;7.30;;;19.70;56.90;;;;;;5066903;28;20456;-86
2022/04/24 10:33:21;;;;;;;9.45;7.25;;;19.80;57.80;;;;;;5084500;28;20051;-83
2022/04/24 10:35:48;;;;;;;8.20;6.97;;;19.70;58.90;;;;;;5066286;28;20024;-84
2022/04/24 10:38:15;;;;;;;9.52;7.95;;;19.50;58.00;;;;;;5065711;28;20048;-84
2022/04/24 10:40:42;;;;;;;9.65;8.00;;;19.00;58.20;;;;;;5064560;28;20021;-85
2022/04/24 10:43:10;;;;;;;9.15;7.45;;;19.10;57.80;;;;;;5064341;28;20058;-85
2022/04/24 10:45:46;;;;;;;9.95;7.55;;;19.40;58.20;;;;;;5055491;28;20032;-85
2022/04/24 10:48:16;;;;;;;12.43;7.07;;;19.40;58.10;;;;;;5046148;28;20024;-84
2022/04/24 10:50:52;;;;;;;10.15;7.75;;;19.60;56.80;;;;;;5061388;28;20025;-86
2022/04/24 10:53:19;;;;;;;9.68;6.93;;;19.40;56.50;;;;;;5080777;28;20059;-80
2022/04/24 10:55:47;;;;;;;7.72;6.68;;;19.50;56.90;;;;;;5063700;28;20020;-85
2022/04/24 10:58:28;;;;;;;12.30;6.80;;;19.10;56.70;;;;;;5051338;28;20088;-87
2022/04/24 11:00:54;;;;;;;10.25;6.40;;;18.80;58.30;;;;;;5052219;28;20036;-87
2022/04/24 11:03:20;;;;;;;7.55;6.45;;;19.30;58.60;;;;;;5058238;28;20024;-85
2022/04/24 11:05:47;;;;;;;7.85;6.60;;;20.20;57.40;;;;;;5060435;28;20033;-84
2022/04/24 11:08:20;;;;;;;8.48;7.57;;;20.60;55.30;;;;;;5067987;28;20021;-87
2022/04/24 11:10:50;;;;;;;10.43;8.43;;;21.00;53.80;;;;;;5043452;28;20036;-83
2022/04/24 11:13:18;;;;;;;9.13;7.32;;;20.40;54.50;;;;;;5046566;28;20039;-86
2022/04/24 11:15:47;;;;;;;13.73;6.68;;;20.30;54.30;;;;;;5045636;28;20021;-83
2022/04/24 11:18:21;;;;;;;7.53;6.45;;;20.70;54.80;;;;;;5045480;28;20021;-85
2022/04/24 11:21:21;;;;;;;7.60;6.82;;;21.30;53.20;;;;;;5045685;28;20099;-81
2022/04/24 11:23:47;;;;;;;8.55;6.70;;;21.80;52.40;;;;;;5004068;28;20036;-85
2022/04/24 11:26:14;;;;;;;8.90;6.38;;;22.10;53.10;;;;;;5045455;28;20029;-83
2022/04/24 11:28:41;;;;;;;11.57;6.95;;;22.20;51.00;;;;;;5061998;28;20107;-84
2022/04/24 11:31:10;;;;;;;8.63;6.60;;;21.80;50.90;;;;;;5062194;28;20021;-82
2022/04/24 11:33:37;;;;;;;9.05;7.50;;;21.30;52.70;;;;;;5043319;28;20560;-85
2022/04/24 11:36:06;;;;;;;8.05;7.20;;;20.80;53.10;;;;;;5044205;28;20021;-85
2022/04/24 11:38:32;;;;;;;8.90;7.45;;;20.60;52.90;;;;;;5061722;28;20021;-85
2022/04/24 11:41:03;;;;;;;9.38;8.38;;;20.00;54.30;;;;;;5045075;28;20021;-84
2022/04/24 11:43:29;;;;;;;10.90;7.53;;;19.60;56.40;;;;;;5044641;28;20400;-83
2022/04/24 11:51:33;;;;;;;8.50;6.55;;;21.10;54.00;;;;;;5088694;28;20009;-84
2022/04/24 11:53:59;;;;;;;8.45;6.97;;;21.00;54.30;;;;;;5064309;28;20205;-82
2022/04/24 11:56:25;;;;;;;9.73;7.43;;;20.40;55.50;;;;;;5064623;28;20090;-84
2022/04/24 11:58:51;;;;;;;9.32;7.63;;;20.20;55.60;;;;;;5065096;28;20025;-83
2022/04/24 12:01:18;;;;;;;10.55;6.20;;;20.00;56.70;;;;;;5082915;28;20540;-83
2022/04/24 12:03:44;;;;;;;7.55;5.72;;;20.50;56.20;;;;;;5063737;28;20028;-84
2022/04/24 12:06:11;;;;;;;10.10;6.43;;;20.80;55.70;;;;;;5063858;28;20480;-83
2022/04/24 12:08:45;;;;;;;7.53;6.50;;;20.60;55.30;;;;;;5081348;28;20104;-85
2022/04/24 12:11:24;;;;;;;10.27;6.50;;;20.40;55.50;;;;;;5063180;28;20033;-85
2022/04/24 12:14:11;;;;;;;7.13;5.63;;;20.60;55.80;;;;;;5082681;28;20032;-84
2022/04/24 12:16:39;;;;;;;7.50;6.15;;;20.80;55.40;;;;;;5064013;28;20464;-84
2022/04/24 12:19:06;;;;;;;10.07;6.45;;;20.90;55.00;;;;;;5068076;28;20055;-81
2022/04/24 12:21:44;;;;;;;7.72;6.32;;;20.80;54.90;;;;;;5087453;28;20115;-83
2022/04/24 12:24:10;;;;;;;13.32;6.45;;;20.80;54.00;;;;;;5069698;28;20047;-83
2022/04/24 12:26:49;;;;;;;11.23;6.50;;;20.60;54.40;;;;;;5082220;28;20043;-83
2022/04/24 12:29:16;;;;;;;9.60;6.93;;;20.60;55.10;;;;;;5063826;28;20031;-83
2022/04/24 12:31:43;;;;;;;7.22;6.15;;;20.60;55.80;;;;;;5081943;28;20026;-83
2022/04/24 12:34:08;;;;;;;7.80;6.18;;;20.60;55.20;;;;;;5080785;28;20032;-83
2022/04/24 12:36:34;;;;;;;7.45;5.22;;;20.80;54.80;;;;;;5080594;28;20028;-81
2022/04/24 12:39:06;;;;;;;8.52;6.63;;;21.00;54.80;;;;;;5060828;28;20059;-81
2022/04/24 12:41:35;;;;;;;7.05;6.22;;;21.20;52.90;;;;;;5060184;28;20022;-83
2022/04/24 12:44:05;;;;;;;7.90;5.82;;;21.30;53.10;;;;;;5060310;28;20029;-82
2022/04/24 12:46:32;;;;;;;8.05;5.80;;;21.10;52.50;;;;;;5060022;28;20024;-82
2022/04/24 12:48:58;;;;;;;8.55;5.82;;;21.20;52.30;;;;;;5077520;28;20046;-82
2022/04/24 12:51:25;;;;;;;6.60;5.88;;;21.20;52.30;;;;;;5058924;28;20027;-84
2022/04/24 12:53:54;;;;;;;7.20;6.40;;;21.20;53.00;;;;;;5079763;28;20036;-83